MOL Explorer — 3EKT8 — position and weather

sailwx.info

Track history (hours):
 
Tides and Currents Weather Stations Pressure Air Temp Water Temp Dewpoint Dewpoint Depression Visibility Wind Speed Wind Dir Waves Ship Positions

MOL Explorer

Last reported at 2017-Dec-10 11:02 UTC. Time now 2017-Dec-17 23:35 UTC.
Position N 01°13' E 103°29'.

Length 293 m; draft 12.1 m.

Type: Ship (hazmat cat A). MMSI: 372827000.

Date/timePositionNaut miles runAvg speedWind from/ knotsBaromVisibWave heightAir tempDewpointWater temp
2017-Dec-10 11:02N 01°13' E 103°29'311.6
2017-Dec-10 10:44N 01°13' E 103°32'311.3
2017-Dec-10 10:30N 01°12' E 103°35'510.7
2017-Dec-10 10:00N 01°11' E 103°40'6 9.0
2017-Dec-10 09:23N 01°09' E 103°45'410.4
2017-Dec-10 08:58N 01°11' E 103°49'4 8.6
2017-Dec-10 08:30N 01°14' E 103°52'2 4.7
2017-Dec-10 08:00N 01°16' E 103°50'0 0.4
2017-Dec-10 07:29N 01°16' E 103°50'0 0.0
2017-Dec-10 06:50N 01°16' E 103°50'0 0.0
2017-Dec-10 06:26N 01°16' E 103°50'0 0.0
2017-Dec-10 05:56N 01°16' E 103°50'0 0.0
2017-Dec-10 05:29N 01°16' E 103°50'0 0.0
2017-Dec-10 04:38N 01°16' E 103°50'0 0.0
2017-Dec-10 04:26N 01°16' E 103°50'0 0.0
2017-Dec-10 03:56N 01°16' E 103°50'0 0.0
2017-Dec-10 03:26N 01°16' E 103°50'0 0.0
2017-Dec-10 02:41N 01°16' E 103°50'0 0.0
2017-Dec-10 02:26N 01°16' E 103°50'0 0.0
2017-Dec-10 01:56N 01°16' E 103°50'0 0.0
2017-Dec-10 01:26N 01°16' E 103°50'0 0.0
2017-Dec-10 00:50N 01°16' E 103°50'0 0.0
2017-Dec-10 00:26N 01°16' E 103°50'0 0.0
2017-Dec-09 23:53N 01°16' E 103°50'0 0.0
2017-Dec-09 23:29N 01°16' E 103°50'0 0.0
2017-Dec-09 22:56N 01°16' E 103°50'0 0.0
2017-Dec-09 22:20N 01°16' E 103°50'0 0.0
2017-Dec-09 21:44N 01°16' E 103°50'0 0.0
2017-Dec-09 21:08N 01°16' E 103°50'0 0.0
2017-Dec-09 20:44N 01°16' E 103°50'0 0.0
2017-Dec-09 20:26N 01°16' E 103°50'0 0.0
2017-Dec-09 19:56N 01°16' E 103°50'0 0.0
2017-Dec-09 19:26N 01°16' E 103°50'0 0.0
2017-Dec-09 18:56N 01°16' E 103°50'0 0.0
2017-Dec-09 18:29N 01°16' E 103°50'0 0.0
2017-Dec-09 17:56N 01°16' E 103°50'0 0.0
2017-Dec-09 17:20N 01°16' E 103°50'0 0.0
2017-Dec-09 16:50N 01°16' E 103°50'0 0.0
2017-Dec-09 16:29N 01°16' E 103°50'0 0.0
2017-Dec-09 15:50N 01°16' E 103°50'0 0.0
2017-Dec-09 15:29N 01°16' E 103°50'0 0.0
2017-Dec-09 14:59N 01°16' E 103°50'0 0.0
2017-Dec-09 14:20N 01°16' E 103°50'0 0.0
2017-Dec-09 13:59N 01°16' E 103°50'0 0.0
2017-Dec-09 13:26N 01°16' E 103°50'0 0.0
2017-Dec-09 12:59N 01°16' E 103°50'0 0.0
2017-Dec-09 12:26N 01°16' E 103°50'0 0.0
2017-Dec-09 11:59N 01°16' E 103°50'0 0.0
2017-Dec-09 11:26N 01°16' E 103°50'0 0.0
2017-Dec-09 11:00N 01°16' E 103°50'1 1.2
2017-Dec-09 10:30N 01°16' E 103°51'3 6.6
2017-Dec-09 10:00N 01°14' E 103°54'3 6.5
2017-Dec-09 09:30N 01°15' E 103°57'611.5
2017-Dec-09 09:00N 01°16' E 104°03'  
2017-Dec-01 15:28N 34°23' E 138°58'815.9
2017-Dec-01 15:00N 34°28' E 139°05'816.3
2017-Dec-01 14:30N 34°32' E 139°12'1015.2
2017-Dec-01 13:52N 34°36' E 139°23'615.8
2017-Dec-01 13:28N 34°40' E 139°30'817.2
2017-Dec-01 13:00N 34°47' E 139°33'918.0
2017-Dec-01 12:30N 34°55' E 139°38'918.2
2017-Dec-01 12:00N 35°04' E 139°43'816.7
2017-Dec-01 11:30N 35°11' E 139°46'611.5
2017-Dec-01 11:00N 35°17' E 139°45'612.8
2017-Dec-01 10:31N 35°23' E 139°42'816.4
2017-Dec-01 10:01N 35°29' E 139°50'713.1
2017-Dec-01 09:30N 35°35' E 139°47'2 3.5
2017-Dec-01 09:00N 35°36' E 139°46'0 0.2
2017-Dec-01 08:26N 35°36' E 139°46'0 0.0
2017-Dec-01 07:59N 35°36' E 139°46'0 0.0
2017-Dec-01 07:26N 35°36' E 139°46'0 0.0
2017-Dec-01 06:56N 35°36' E 139°46'0 0.0
2017-Dec-01 06:29N 35°36' E 139°46'0 0.0
2017-Dec-01 05:59N 35°36' E 139°46'0 0.0
2017-Dec-01 05:26N 35°36' E 139°46'0 0.0
2017-Dec-01 04:59N 35°36' E 139°46'0 0.0
2017-Dec-01 04:29N 35°36' E 139°46'0 0.0
2017-Dec-01 03:59N 35°36' E 139°46'0 0.0
2017-Dec-01 03:26N 35°36' E 139°46'0 0.0
2017-Dec-01 02:56N 35°36' E 139°46'0 0.0
2017-Dec-01 02:29N 35°36' E 139°46'0 0.0
2017-Dec-01 01:53N 35°36' E 139°46'0 0.0
2017-Dec-01 01:29N 35°36' E 139°46'0 0.0
2017-Dec-01 00:53N 35°36' E 139°46'0 0.0
2017-Dec-01 00:29N 35°36' E 139°46'0 0.0
2017-Nov-30 23:59N 35°36' E 139°46'0 0.0
2017-Nov-30 23:29N 35°36' E 139°46'0 0.0
2017-Nov-30 22:59N 35°36' E 139°46'0 0.3
2017-Nov-30 22:30N 35°36' E 139°46'3 5.8
2017-Nov-30 22:00N 35°34' E 139°49'4 8.9
2017-Nov-30 21:31N 35°31' E 139°52'2 3.3
2017-Nov-30 21:01N 35°29' E 139°52'4 8.9
2017-Nov-30 20:30N 35°27' E 139°48'510.6
2017-Nov-30 20:00N 35°27' E 139°41'0 0.7
2017-Nov-30 19:30N 35°26' E 139°41'0 0.0
2017-Nov-30 19:00N 35°26' E 139°41'0 0.0
2017-Nov-30 18:30N 35°26' E 139°41'0 0.0
2017-Nov-30 18:00N 35°26' E 139°41'0 0.0
2017-Nov-30 17:30N 35°26' E 139°41'0 0.0
2017-Nov-30 17:00N 35°26' E 139°41'0 0.0
2017-Nov-30 16:30N 35°26' E 139°41'0 0.0
2017-Nov-30 16:00N 35°26' E 139°41'0 0.0
2017-Nov-30 15:30N 35°26' E 139°41'0 0.0
2017-Nov-30 15:00N 35°26' E 139°41'0 0.0
2017-Nov-30 14:30N 35°26' E 139°41'0 0.0
2017-Nov-30 14:00N 35°26' E 139°41'0 0.0
2017-Nov-30 13:30N 35°26' E 139°41'0 0.0
2017-Nov-30 13:00N 35°26' E 139°41'0 0.0
2017-Nov-30 12:30N 35°26' E 139°41'0 0.0
2017-Nov-30 12:00N 35°26' E 139°41'0 0.0
2017-Nov-30 11:30N 35°26' E 139°41'  
Track history (hours):
 
Tides and Currents Weather Stations Pressure Air Temp Water Temp Dewpoint Dewpoint Depression Visibility Wind Speed Wind Dir Waves Ship Positions

MOL Explorer

Last reported at 2017-Dec-10 11:02 UTC. Time now 2017-Dec-17 23:35 UTC.
Position N 01°13' E 103°29'.

Length 293 m; draft 12.1 m.

Type: Ship (hazmat cat A). MMSI: 372827000.

Date/timePositionNaut miles runAvg speedWind from/ knotsBaromVisibWave heightAir tempDewpointWater temp
2017-Dec-10 11:02N 01°13' E 103°29'311.6
2017-Dec-10 10:44N 01°13' E 103°32'311.3
2017-Dec-10 10:30N 01°12' E 103°35'510.7
2017-Dec-10 10:00N 01°11' E 103°40'6 9.0
2017-Dec-10 09:23N 01°09' E 103°45'410.4
2017-Dec-10 08:58N 01°11' E 103°49'4 8.6
2017-Dec-10 08:30N 01°14' E 103°52'2 4.7
2017-Dec-10 08:00N 01°16' E 103°50'0 0.4
2017-Dec-10 07:29N 01°16' E 103°50'0 0.0
2017-Dec-10 06:50N 01°16' E 103°50'0 0.0
2017-Dec-10 06:26N 01°16' E 103°50'0 0.0
2017-Dec-10 05:56N 01°16' E 103°50'0 0.0
2017-Dec-10 05:29N 01°16' E 103°50'0 0.0
2017-Dec-10 04:38N 01°16' E 103°50'0 0.0
2017-Dec-10 04:26N 01°16' E 103°50'0 0.0
2017-Dec-10 03:56N 01°16' E 103°50'0 0.0
2017-Dec-10 03:26N 01°16' E 103°50'0 0.0
2017-Dec-10 02:41N 01°16' E 103°50'0 0.0
2017-Dec-10 02:26N 01°16' E 103°50'0 0.0
2017-Dec-10 01:56N 01°16' E 103°50'0 0.0
2017-Dec-10 01:26N 01°16' E 103°50'0 0.0
2017-Dec-10 00:50N 01°16' E 103°50'0 0.0
2017-Dec-10 00:26N 01°16' E 103°50'0 0.0
2017-Dec-09 23:53N 01°16' E 103°50'0 0.0
2017-Dec-09 23:29N 01°16' E 103°50'0 0.0
2017-Dec-09 22:56N 01°16' E 103°50'0 0.0
2017-Dec-09 22:20N 01°16' E 103°50'0 0.0
2017-Dec-09 21:44N 01°16' E 103°50'0 0.0
2017-Dec-09 21:08N 01°16' E 103°50'0 0.0
2017-Dec-09 20:44N 01°16' E 103°50'0 0.0
2017-Dec-09 20:26N 01°16' E 103°50'0 0.0
2017-Dec-09 19:56N 01°16' E 103°50'0 0.0
2017-Dec-09 19:26N 01°16' E 103°50'0 0.0
2017-Dec-09 18:56N 01°16' E 103°50'0 0.0
2017-Dec-09 18:29N 01°16' E 103°50'0 0.0
2017-Dec-09 17:56N 01°16' E 103°50'0 0.0
2017-Dec-09 17:20N 01°16' E 103°50'0 0.0
2017-Dec-09 16:50N 01°16' E 103°50'0 0.0
2017-Dec-09 16:29N 01°16' E 103°50'0 0.0
2017-Dec-09 15:50N 01°16' E 103°50'0 0.0
2017-Dec-09 15:29N 01°16' E 103°50'0 0.0
2017-Dec-09 14:59N 01°16' E 103°50'0 0.0
2017-Dec-09 14:20N 01°16' E 103°50'0 0.0
2017-Dec-09 13:59N 01°16' E 103°50'0 0.0
2017-Dec-09 13:26N 01°16' E 103°50'0 0.0
2017-Dec-09 12:59N 01°16' E 103°50'0 0.0
2017-Dec-09 12:26N 01°16' E 103°50'0 0.0
2017-Dec-09 11:59N 01°16' E 103°50'0 0.0
2017-Dec-09 11:26N 01°16' E 103°50'0 0.0
2017-Dec-09 11:00N 01°16' E 103°50'1 1.2
2017-Dec-09 10:30N 01°16' E 103°51'3 6.6
2017-Dec-09 10:00N 01°14' E 103°54'3 6.5
2017-Dec-09 09:30N 01°15' E 103°57'611.5
2017-Dec-09 09:00N 01°16' E 104°03'  
2017-Dec-01 15:28N 34°23' E 138°58'815.9
2017-Dec-01 15:00N 34°28' E 139°05'816.3
2017-Dec-01 14:30N 34°32' E 139°12'1015.2
2017-Dec-01 13:52N 34°36' E 139°23'615.8
2017-Dec-01 13:28N 34°40' E 139°30'817.2
2017-Dec-01 13:00N 34°47' E 139°33'918.0
2017-Dec-01 12:30N 34°55' E 139°38'918.2
2017-Dec-01 12:00N 35°04' E 139°43'816.7
2017-Dec-01 11:30N 35°11' E 139°46'611.5
2017-Dec-01 11:00N 35°17' E 139°45'612.8
2017-Dec-01 10:31N 35°23' E 139°42'816.4
2017-Dec-01 10:01N 35°29' E 139°50'713.1
2017-Dec-01 09:30N 35°35' E 139°47'2 3.5
2017-Dec-01 09:00N 35°36' E 139°46'0 0.2
2017-Dec-01 08:26N 35°36' E 139°46'0 0.0
2017-Dec-01 07:59N 35°36' E 139°46'0 0.0
2017-Dec-01 07:26N 35°36' E 139°46'0 0.0
2017-Dec-01 06:56N 35°36' E 139°46'0 0.0
2017-Dec-01 06:29N 35°36' E 139°46'0 0.0
2017-Dec-01 05:59N 35°36' E 139°46'0 0.0
2017-Dec-01 05:26N 35°36' E 139°46'0 0.0
2017-Dec-01 04:59N 35°36' E 139°46'0 0.0
2017-Dec-01 04:29N 35°36' E 139°46'0 0.0
2017-Dec-01 03:59N 35°36' E 139°46'0 0.0
2017-Dec-01 03:26N 35°36' E 139°46'0 0.0
2017-Dec-01 02:56N 35°36' E 139°46'0 0.0
2017-Dec-01 02:29N 35°36' E 139°46'0 0.0
2017-Dec-01 01:53N 35°36' E 139°46'0 0.0
2017-Dec-01 01:29N 35°36' E 139°46'0 0.0
2017-Dec-01 00:53N 35°36' E 139°46'0 0.0
2017-Dec-01 00:29N 35°36' E 139°46'0 0.0
2017-Nov-30 23:59N 35°36' E 139°46'0 0.0
2017-Nov-30 23:29N 35°36' E 139°46'0 0.0
2017-Nov-30 22:59N 35°36' E 139°46'0 0.3
2017-Nov-30 22:30N 35°36' E 139°46'3 5.8
2017-Nov-30 22:00N 35°34' E 139°49'4 8.9
2017-Nov-30 21:31N 35°31' E 139°52'2 3.3
2017-Nov-30 21:01N 35°29' E 139°52'4 8.9
2017-Nov-30 20:30N 35°27' E 139°48'510.6
2017-Nov-30 20:00N 35°27' E 139°41'0 0.7
2017-Nov-30 19:30N 35°26' E 139°41'0 0.0
2017-Nov-30 19:00N 35°26' E 139°41'0 0.0
2017-Nov-30 18:30N 35°26' E 139°41'0 0.0
2017-Nov-30 18:00N 35°26' E 139°41'0 0.0
2017-Nov-30 17:30N 35°26' E 139°41'0 0.0
2017-Nov-30 17:00N 35°26' E 139°41'0 0.0
2017-Nov-30 16:30N 35°26' E 139°41'0 0.0
2017-Nov-30 16:00N 35°26' E 139°41'0 0.0
2017-Nov-30 15:30N 35°26' E 139°41'0 0.0
2017-Nov-30 15:00N 35°26' E 139°41'0 0.0
2017-Nov-30 14:30N 35°26' E 139°41'0 0.0
2017-Nov-30 14:00N 35°26' E 139°41'0 0.0
2017-Nov-30 13:30N 35°26' E 139°41'0 0.0
2017-Nov-30 13:00N 35°26' E 139°41'0 0.0
2017-Nov-30 12:30N 35°26' E 139°41'0 0.0
2017-Nov-30 12:00N 35°26' E 139°41'0 0.0
2017-Nov-30 11:30N 35°26' E 139°41'  

Dump ship's entire track history